sensor_id;sensor_type;location;lat;lon;timestamp;noise_LAeq;noise_LA_min;noise_LA_max;noise_LA01;noise_LA95
72686;Laerm;61365;52.162;4.500;2023-04-25T00:00:02;45.45;38.93;50.21;;
72686;Laerm;61365;52.162;4.500;2023-04-25T00:02:29;45.35;38.64;54.18;;
72686;Laerm;61365;52.162;4.500;2023-04-25T00:04:57;45.44;39.75;65.08;;
72686;Laerm;61365;52.162;4.500;2023-04-25T00:07:25;45.35;39.21;49.71;;
72686;Laerm;61365;52.162;4.500;2023-04-25T00:09:51;45.37;39.14;50.32;;
72686;Laerm;61365;52.162;4.500;2023-04-25T00:12:17;45.49;38.57;52.18;;
72686;Laerm;61365;52.162;4.500;2023-04-25T00:14:43;45.55;40.05;53.43;;
72686;Laerm;61365;52.162;4.500;2023-04-25T00:17:11;45.52;37.86;52.48;;
72686;Laerm;61365;52.162;4.500;2023-04-25T00:19:37;45.42;38.78;54.83;;
72686;Laerm;61365;52.162;4.500;2023-04-25T00:22:03;45.57;39.39;50.41;;
72686;Laerm;61365;52.162;4.500;2023-04-25T00:24:31;45.62;39.78;55.27;;
72686;Laerm;61365;52.162;4.500;2023-04-25T00:26:57;45.59;39.37;49.58;;
72686;Laerm;61365;52.162;4.500;2023-04-25T00:29:23;45.51;38.70;51.64;;
72686;Laerm;61365;52.162;4.500;2023-04-25T00:31:49;45.51;38.17;52.38;;
72686;Laerm;61365;52.162;4.500;2023-04-25T00:34:15;45.44;39.30;53.07;;
72686;Laerm;61365;52.162;4.500;2023-04-25T00:36:41;45.55;39.37;53.02;;
72686;Laerm;61365;52.162;4.500;2023-04-25T00:39:08;45.59;39.28;51.91;;
72686;Laerm;61365;52.162;4.500;2023-04-25T00:41:34;45.48;39.32;51.12;;
72686;Laerm;61365;52.162;4.500;2023-04-25T00:44:01;45.49;39.90;53.08;;
72686;Laerm;61365;52.162;4.500;2023-04-25T00:46:28;45.59;39.66;50.68;;
72686;Laerm;61365;52.162;4.500;2023-04-25T00:48:54;45.63;39.94;49.98;;
72686;Laerm;61365;52.162;4.500;2023-04-25T00:51:21;45.60;39.57;51.07;;
72686;Laerm;61365;52.162;4.500;2023-04-25T00:53:49;45.75;39.56;51.34;;
72686;Laerm;61365;52.162;4.500;2023-04-25T00:56:16;45.73;37.29;51.93;;
72686;Laerm;61365;52.162;4.500;2023-04-25T00:58:42;45.65;39.17;53.07;;
72686;Laerm;61365;52.162;4.500;2023-04-25T01:01:10;45.69;39.45;51.43;;
72686;Laerm;61365;52.162;4.500;2023-04-25T01:03:38;45.79;39.79;51.81;;
72686;Laerm;61365;52.162;4.500;2023-04-25T01:06:10;45.72;40.25;51.12;;
72686;Laerm;61365;52.162;4.500;2023-04-25T01:08:39;45.68;38.49;51.78;;
72686;Laerm;61365;52.162;4.500;2023-04-25T01:11:06;45.61;39.46;52.72;;
72686;Laerm;61365;52.162;4.500;2023-04-25T01:13:33;45.70;39.72;52.62;;
72686;Laerm;61365;52.162;4.500;2023-04-25T01:16:00;45.71;39.63;54.55;;
72686;Laerm;61365;52.162;4.500;2023-04-25T01:18:27;45.69;39.08;51.14;;
72686;Laerm;61365;52.162;4.500;2023-04-25T01:20:53;45.71;40.19;53.69;;
72686;Laerm;61365;52.162;4.500;2023-04-25T01:23:20;45.78;40.08;54.82;;
72686;Laerm;61365;52.162;4.500;2023-04-25T01:25:48;45.75;39.90;52.48;;
72686;Laerm;61365;52.162;4.500;2023-04-25T01:28:15;45.83;39.29;54.34;;
72686;Laerm;61365;52.162;4.500;2023-04-25T01:30:42;45.83;39.93;52.51;;
72686;Laerm;61365;52.162;4.500;2023-04-25T01:33:09;45.70;39.86;55.02;;
72686;Laerm;61365;52.162;4.500;2023-04-25T01:35:36;45.74;39.41;52.59;;
72686;Laerm;61365;52.162;4.500;2023-04-25T01:38:02;45.73;40.27;52.23;;
72686;Laerm;61365;52.162;4.500;2023-04-25T01:40:28;45.69;40.08;51.61;;
72686;Laerm;61365;52.162;4.500;2023-04-25T01:42:55;45.65;39.84;50.77;;
72686;Laerm;61365;52.162;4.500;2023-04-25T01:45:21;45.76;38.46;51.66;;
72686;Laerm;61365;52.162;4.500;2023-04-25T01:47:47;45.75;39.97;51.82;;
72686;Laerm;61365;52.162;4.500;2023-04-25T01:50:17;45.71;38.41;51.83;;
72686;Laerm;61365;52.162;4.500;2023-04-25T01:52:44;45.86;39.76;51.17;;
72686;Laerm;61365;52.162;4.500;2023-04-25T01:55:10;45.86;38.92;51.08;;
72686;Laerm;61365;52.162;4.500;2023-04-25T01:57:37;45.75;39.98;50.16;;
72686;Laerm;61365;52.162;4.500;2023-04-25T02:00:05;45.78;39.93;53.18;;
72686;Laerm;61365;52.162;4.500;2023-04-25T02:02:32;45.70;38.77;53.02;;
72686;Laerm;61365;52.162;4.500;2023-04-25T02:04:58;45.67;39.41;52.15;;
72686;Laerm;61365;52.162;4.500;2023-04-25T02:07:26;45.61;39.92;50.73;;
72686;Laerm;61365;52.162;4.500;2023-04-25T02:09:52;45.59;39.41;50.53;;
72686;Laerm;61365;52.162;4.500;2023-04-25T02:12:18;45.58;39.62;53.67;;
72686;Laerm;61365;52.162;4.500;2023-04-25T02:14:44;45.61;38.99;51.14;;
72686;Laerm;61365;52.162;4.500;2023-04-25T02:17:11;45.71;40.23;50.04;;
72686;Laerm;61365;52.162;4.500;2023-04-25T02:19:38;45.72;39.68;50.30;;
72686;Laerm;61365;52.162;4.500;2023-04-25T02:22:04;45.71;39.76;50.30;;
72686;Laerm;61365;52.162;4.500;2023-04-25T02:24:30;45.77;38.67;51.28;;
72686;Laerm;61365;52.162;4.500;2023-04-25T02:26:57;45.77;38.76;55.68;;
72686;Laerm;61365;52.162;4.500;2023-04-25T02:29:23;45.73;39.22;50.66;;
72686;Laerm;61365;52.162;4.500;2023-04-25T02:31:49;45.86;37.59;50.81;;
72686;Laerm;61365;52.162;4.500;2023-04-25T02:34:16;45.91;39.47;53.89;;
72686;Laerm;61365;52.162;4.500;2023-04-25T02:36:42;45.89;39.51;55.18;;
72686;Laerm;61365;52.162;4.500;2023-04-25T02:39:08;45.76;38.57;51.63;;
72686;Laerm;61365;52.162;4.500;2023-04-25T02:41:34;45.94;39.96;50.57;;
72686;Laerm;61365;52.162;4.500;2023-04-25T02:44:00;45.97;40.34;50.66;;
72686;Laerm;61365;52.162;4.500;2023-04-25T02:46:26;45.93;39.23;52.02;;
72686;Laerm;61365;52.162;4.500;2023-04-25T02:48:52;46.01;40.19;52.21;;
72686;Laerm;61365;52.162;4.500;2023-04-25T02:51:18;46.05;40.13;52.38;;
72686;Laerm;61365;52.162;4.500;2023-04-25T02:53:44;46.08;39.84;51.99;;
72686;Laerm;61365;52.162;4.500;2023-04-25T02:56:11;45.94;40.38;51.12;;
72686;Laerm;61365;52.162;4.500;2023-04-25T02:58:37;45.99;40.05;51.15;;
72686;Laerm;61365;52.162;4.500;2023-04-25T03:01:03;45.87;40.09;51.87;;
72686;Laerm;61365;52.162;4.500;2023-04-25T03:03:29;45.79;39.23;52.63;;
72686;Laerm;61365;52.162;4.500;2023-04-25T03:05:55;45.62;38.89;55.06;;
72686;Laerm;61365;52.162;4.500;2023-04-25T03:08:21;45.53;38.78;53.71;;
72686;Laerm;61365;52.162;4.500;2023-04-25T03:10:47;45.54;39.16;50.31;;
72686;Laerm;61365;52.162;4.500;2023-04-25T03:13:13;45.58;39.93;50.14;;
72686;Laerm;61365;52.162;4.500;2023-04-25T03:15:39;45.55;38.72;53.42;;
72686;Laerm;61365;52.162;4.500;2023-04-25T03:18:05;45.44;39.44;50.62;;
72686;Laerm;61365;52.162;4.500;2023-04-25T03:20:31;45.48;40.14;53.17;;
72686;Laerm;61365;52.162;4.500;2023-04-25T03:22:58;45.49;39.89;52.03;;
72686;Laerm;61365;52.162;4.500;2023-04-25T03:25:24;45.45;39.24;51.36;;
72686;Laerm;61365;52.162;4.500;2023-04-25T03:27:50;45.47;39.71;50.48;;
72686;Laerm;61365;52.162;4.500;2023-04-25T03:30:16;45.45;39.11;52.69;;
72686;Laerm;61365;52.162;4.500;2023-04-25T03:32:42;45.43;39.75;51.79;;
72686;Laerm;61365;52.162;4.500;2023-04-25T03:35:08;45.42;39.59;53.49;;
72686;Laerm;61365;52.162;4.500;2023-04-25T03:37:34;45.48;37.87;50.43;;
72686;Laerm;61365;52.162;4.500;2023-04-25T03:40:00;45.32;39.13;52.20;;
72686;Laerm;61365;52.162;4.500;2023-04-25T03:42:27;45.29;38.26;50.24;;
72686;Laerm;61365;52.162;4.500;2023-04-25T03:44:53;45.33;39.03;51.84;;
72686;Laerm;61365;52.162;4.500;2023-04-25T03:47:19;45.30;39.02;53.70;;
72686;Laerm;61365;52.162;4.500;2023-04-25T03:49:45;45.42;36.85;52.08;;
72686;Laerm;61365;52.162;4.500;2023-04-25T03:52:11;45.38;37.40;53.63;;
72686;Laerm;61365;52.162;4.500;2023-04-25T03:54:37;45.41;38.93;52.62;;
72686;Laerm;61365;52.162;4.500;2023-04-25T03:57:03;45.34;37.93;49.95;;
72686;Laerm;61365;52.162;4.500;2023-04-25T03:59:29;45.32;39.85;51.74;;
72686;Laerm;61365;52.162;4.500;2023-04-25T04:01:56;45.31;38.34;52.85;;
72686;Laerm;61365;52.162;4.500;2023-04-25T04:04:22;45.33;39.80;51.88;;
72686;Laerm;61365;52.162;4.500;2023-04-25T04:06:48;45.41;38.54;52.81;;
72686;Laerm;61365;52.162;4.500;2023-04-25T04:09:15;45.40;39.84;50.20;;
72686;Laerm;61365;52.162;4.500;2023-04-25T04:11:42;45.40;39.53;50.15;;
72686;Laerm;61365;52.162;4.500;2023-04-25T04:14:08;45.42;38.34;49.99;;
72686;Laerm;61365;52.162;4.500;2023-04-25T04:16:34;45.54;39.88;52.14;;
72686;Laerm;61365;52.162;4.500;2023-04-25T04:19:00;45.61;39.32;51.60;;
72686;Laerm;61365;52.162;4.500;2023-04-25T04:21:26;45.59;39.80;50.22;;
72686;Laerm;61365;52.162;4.500;2023-04-25T04:23:53;45.51;39.11;52.02;;
72686;Laerm;61365;52.162;4.500;2023-04-25T04:26:20;45.51;38.87;52.60;;
72686;Laerm;61365;52.162;4.500;2023-04-25T04:28:49;45.61;39.28;53.37;;
72686;Laerm;61365;52.162;4.500;2023-04-25T04:31:23;45.61;39.17;53.42;;
72686;Laerm;61365;52.162;4.500;2023-04-25T04:33:49;45.68;40.36;52.60;;
72686;Laerm;61365;52.162;4.500;2023-04-25T04:36:16;45.65;39.15;50.38;;
72686;Laerm;61365;52.162;4.500;2023-04-25T04:38:45;45.60;39.38;52.68;;
72686;Laerm;61365;52.162;4.500;2023-04-25T04:41:11;45.61;40.10;51.64;;
72686;Laerm;61365;52.162;4.500;2023-04-25T04:43:37;45.56;39.89;51.40;;
72686;Laerm;61365;52.162;4.500;2023-04-25T04:46:05;45.46;39.73;52.23;;
72686;Laerm;61365;52.162;4.500;2023-04-25T04:48:31;45.45;40.10;52.55;;
72686;Laerm;61365;52.162;4.500;2023-04-25T04:51:01;45.46;39.31;52.15;;
72686;Laerm;61365;52.162;4.500;2023-04-25T04:53:27;45.53;39.25;51.75;;
72686;Laerm;61365;52.162;4.500;2023-04-25T04:55:53;45.53;39.64;50.59;;
72686;Laerm;61365;52.162;4.500;2023-04-25T04:58:21;45.60;39.57;52.34;;
72686;Laerm;61365;52.162;4.500;2023-04-25T05:00:47;45.61;39.36;50.82;;
72686;Laerm;61365;52.162;4.500;2023-04-25T05:03:13;45.57;40.05;52.22;;
72686;Laerm;61365;52.162;4.500;2023-04-25T05:05:40;45.57;40.06;50.03;;
72686;Laerm;61365;52.162;4.500;2023-04-25T05:08:07;45.53;39.13;52.01;;
72686;Laerm;61365;52.162;4.500;2023-04-25T05:10:33;45.43;39.98;49.94;;
72686;Laerm;61365;52.162;4.500;2023-04-25T05:12:59;45.64;39.83;53.73;;
72686;Laerm;61365;52.162;4.500;2023-04-25T05:15:25;45.55;39.17;53.80;;
72686;Laerm;61365;52.162;4.500;2023-04-25T05:17:51;45.62;39.89;52.60;;
72686;Laerm;61365;52.162;4.500;2023-04-25T05:20:18;45.62;39.40;51.37;;
72686;Laerm;61365;52.162;4.500;2023-04-25T05:22:46;45.65;39.75;50.25;;
72686;Laerm;61365;52.162;4.500;2023-04-25T05:25:12;45.66;39.11;51.42;;
72686;Laerm;61365;52.162;4.500;2023-04-25T05:27:39;45.70;39.86;51.63;;
72686;Laerm;61365;52.162;4.500;2023-04-25T05:30:05;45.79;38.37;52.20;;
72686;Laerm;61365;52.162;4.500;2023-04-25T05:32:31;45.83;38.80;50.76;;
72686;Laerm;61365;52.162;4.500;2023-04-25T05:34:57;45.61;39.78;50.07;;
72686;Laerm;61365;52.162;4.500;2023-04-25T05:37:24;45.71;38.91;52.86;;
72686;Laerm;61365;52.162;4.500;2023-04-25T05:39:50;45.41;39.22;53.32;;
72686;Laerm;61365;52.162;4.500;2023-04-25T05:42:16;45.25;38.65;49.59;;
72686;Laerm;61365;52.162;4.500;2023-04-25T05:44:42;45.20;38.62;50.88;;
72686;Laerm;61365;52.162;4.500;2023-04-25T05:47:08;45.15;39.25;51.65;;
72686;Laerm;61365;52.162;4.500;2023-04-25T05:49:34;45.12;39.60;51.98;;
72686;Laerm;61365;52.162;4.500;2023-04-25T05:52:00;45.00;38.16;51.01;;
72686;Laerm;61365;52.162;4.500;2023-04-25T05:54:26;44.95;39.34;51.86;;
72686;Laerm;61365;52.162;4.500;2023-04-25T05:56:53;44.86;39.56;52.84;;
72686;Laerm;61365;52.162;4.500;2023-04-25T05:59:19;44.76;39.12;52.30;;
72686;Laerm;61365;52.162;4.500;2023-04-25T06:01:45;44.78;39.18;52.99;;
72686;Laerm;61365;52.162;4.500;2023-04-25T06:04:12;44.67;38.93;52.28;;
72686;Laerm;61365;52.162;4.500;2023-04-25T06:06:38;44.64;39.38;52.64;;
72686;Laerm;61365;52.162;4.500;2023-04-25T06:09:04;44.63;38.79;50.19;;
72686;Laerm;61365;52.162;4.500;2023-04-25T06:11:30;44.55;38.50;52.10;;
72686;Laerm;61365;52.162;4.500;2023-04-25T06:13:57;44.49;37.99;50.02;;
72686;Laerm;61365;52.162;4.500;2023-04-25T06:16:23;44.55;38.46;51.40;;
72686;Laerm;61365;52.162;4.500;2023-04-25T06:18:51;44.62;38.30;53.90;;
72686;Laerm;61365;52.162;4.500;2023-04-25T06:21:17;44.69;38.34;49.86;;
72686;Laerm;61365;52.162;4.500;2023-04-25T06:23:43;44.98;38.62;53.34;;
72686;Laerm;61365;52.162;4.500;2023-04-25T06:26:09;45.06;37.36;54.19;;
72686;Laerm;61365;52.162;4.500;2023-04-25T06:28:35;44.97;37.62;51.08;;
72686;Laerm;61365;52.162;4.500;2023-04-25T06:31:02;45.10;38.48;51.68;;
72686;Laerm;61365;52.162;4.500;2023-04-25T06:33:28;45.47;37.12;50.53;;
72686;Laerm;61365;52.162;4.500;2023-04-25T06:35:54;45.70;39.98;52.19;;
72686;Laerm;61365;52.162;4.500;2023-04-25T06:38:20;45.80;38.68;50.70;;
72686;Laerm;61365;52.162;4.500;2023-04-25T06:40:46;45.97;38.06;51.81;;
72686;Laerm;61365;52.162;4.500;2023-04-25T06:43:13;46.14;38.87;51.99;;
72686;Laerm;61365;52.162;4.500;2023-04-25T06:45:39;46.32;39.84;54.98;;
72686;Laerm;61365;52.162;4.500;2023-04-25T06:48:05;46.30;39.84;51.03;;
72686;Laerm;61365;52.162;4.500;2023-04-25T06:50:31;46.37;39.00;52.87;;
72686;Laerm;61365;52.162;4.500;2023-04-25T06:52:57;46.19;38.96;50.30;;
72686;Laerm;61365;52.162;4.500;2023-04-25T06:55:23;46.31;37.24;51.80;;
72686;Laerm;61365;52.162;4.500;2023-04-25T06:57:49;46.48;38.37;51.33;;
72686;Laerm;61365;52.162;4.500;2023-04-25T07:00:16;46.41;38.49;52.22;;
72686;Laerm;61365;52.162;4.500;2023-04-25T07:02:42;46.48;38.87;50.92;;
72686;Laerm;61365;52.162;4.500;2023-04-25T07:05:09;46.50;38.65;54.64;;
72686;Laerm;61365;52.162;4.500;2023-04-25T07:07:35;44.67;38.70;50.92;;
72686;Laerm;61365;52.162;4.500;2023-04-25T07:10:01;43.89;39.85;51.13;;
72686;Laerm;61365;52.162;4.500;2023-04-25T07:12:27;43.92;40.00;49.02;;
72686;Laerm;61365;52.162;4.500;2023-04-25T07:14:53;43.88;41.23;50.91;;
72686;Laerm;61365;52.162;4.500;2023-04-25T07:17:19;43.91;40.10;48.54;;
72686;Laerm;61365;52.162;4.500;2023-04-25T07:19:45;43.93;38.39;49.62;;
72686;Laerm;61365;52.162;4.500;2023-04-25T07:22:11;43.99;39.44;49.72;;
72686;Laerm;61365;52.162;4.500;2023-04-25T07:24:38;44.03;39.80;49.84;;
72686;Laerm;61365;52.162;4.500;2023-04-25T07:27:04;43.88;40.27;48.29;;
72686;Laerm;61365;52.162;4.500;2023-04-25T07:29:30;43.83;40.17;49.99;;
72686;Laerm;61365;52.162;4.500;2023-04-25T07:31:56;43.69;39.39;48.61;;
72686;Laerm;61365;52.162;4.500;2023-04-25T07:34:22;43.70;39.83;50.01;;
72686;Laerm;61365;52.162;4.500;2023-04-25T07:36:48;43.82;38.59;48.20;;
72686;Laerm;61365;52.162;4.500;2023-04-25T07:39:15;43.79;39.87;51.40;;
72686;Laerm;61365;52.162;4.500;2023-04-25T07:41:41;43.81;38.50;54.97;;
72686;Laerm;61365;52.162;4.500;2023-04-25T07:44:07;43.78;40.61;49.10;;
72686;Laerm;61365;52.162;4.500;2023-04-25T07:46:33;43.89;41.05;50.99;;
72686;Laerm;61365;52.162;4.500;2023-04-25T07:48:59;43.82;40.80;48.16;;
72686;Laerm;61365;52.162;4.500;2023-04-25T07:51:25;43.79;38.94;50.82;;
72686;Laerm;61365;52.162;4.500;2023-04-25T07:53:51;43.90;40.72;48.99;;
72686;Laerm;61365;52.162;4.500;2023-04-25T07:56:17;43.91;40.74;49.47;;
72686;Laerm;61365;52.162;4.500;2023-04-25T07:58:44;43.88;40.88;49.25;;
72686;Laerm;61365;52.162;4.500;2023-04-25T08:01:10;43.85;39.47;48.37;;
72686;Laerm;61365;52.162;4.500;2023-04-25T08:03:36;43.94;38.97;49.59;;
72686;Laerm;61365;52.162;4.500;2023-04-25T08:06:02;43.81;37.93;47.98;;
72686;Laerm;61365;52.162;4.500;2023-04-25T08:08:28;43.60;38.23;48.30;;
72686;Laerm;61365;52.162;4.500;2023-04-25T08:10:55;43.78;40.43;48.51;;
72686;Laerm;61365;52.162;4.500;2023-04-25T08:13:21;44.64;39.41;51.25;;
72686;Laerm;61365;52.162;4.500;2023-04-25T08:15:47;47.16;39.08;51.62;;
72686;Laerm;61365;52.162;4.500;2023-04-25T08:18:13;47.10;40.06;52.05;;
72686;Laerm;61365;52.162;4.500;2023-04-25T08:20:39;47.09;38.72;51.96;;
72686;Laerm;61365;52.162;4.500;2023-04-25T08:23:06;47.28;39.03;52.01;;
72686;Laerm;61365;52.162;4.500;2023-04-25T08:25:33;47.17;39.42;51.56;;
72686;Laerm;61365;52.162;4.500;2023-04-25T08:27:59;47.28;39.21;52.03;;
72686;Laerm;61365;52.162;4.500;2023-04-25T08:30:29;47.28;38.93;51.59;;
72686;Laerm;61365;52.162;4.500;2023-04-25T08:32:55;47.28;38.40;51.85;;
72686;Laerm;61365;52.162;4.500;2023-04-25T08:35:21;47.14;39.72;52.71;;
72686;Laerm;61365;52.162;4.500;2023-04-25T08:37:47;47.09;37.85;51.75;;
72686;Laerm;61365;52.162;4.500;2023-04-25T08:40:15;47.08;39.29;51.62;;
72686;Laerm;61365;52.162;4.500;2023-04-25T08:42:42;47.26;39.28;51.58;;
72686;Laerm;61365;52.162;4.500;2023-04-25T08:45:09;47.31;39.84;54.34;;
72686;Laerm;61365;52.162;4.500;2023-04-25T08:47:37;47.39;39.25;53.65;;
72686;Laerm;61365;52.162;4.500;2023-04-25T08:50:05;47.22;39.66;51.50;;
72686;Laerm;61365;52.162;4.500;2023-04-25T08:52:36;47.04;40.50;52.35;;
72686;Laerm;61365;52.162;4.500;2023-04-25T08:55:05;46.66;41.01;51.47;;
72686;Laerm;61365;52.162;4.500;2023-04-25T08:57:33;46.91;40.94;51.38;;
72686;Laerm;61365;52.162;4.500;2023-04-25T09:00:00;47.07;40.91;50.99;;
72686;Laerm;61365;52.162;4.500;2023-04-25T09:02:27;47.42;38.82;52.37;;
72686;Laerm;61365;52.162;4.500;2023-04-25T09:04:54;47.27;39.64;52.42;;
72686;Laerm;61365;52.162;4.500;2023-04-25T09:07:21;47.16;38.83;51.67;;
72686;Laerm;61365;52.162;4.500;2023-04-25T09:09:47;47.16;37.82;51.88;;
72686;Laerm;61365;52.162;4.500;2023-04-25T09:12:13;46.98;38.34;51.64;;
72686;Laerm;61365;52.162;4.500;2023-04-25T09:14:40;46.83;40.23;51.77;;
72686;Laerm;61365;52.162;4.500;2023-04-25T09:17:08;46.76;39.12;52.34;;
72686;Laerm;61365;52.162;4.500;2023-04-25T09:19:35;46.74;38.80;51.77;;
72686;Laerm;61365;52.162;4.500;2023-04-25T09:22:04;46.84;38.74;51.09;;
72686;Laerm;61365;52.162;4.500;2023-04-25T09:24:31;46.94;39.62;51.47;;
72686;Laerm;61365;52.162;4.500;2023-04-25T09:26:58;46.84;39.30;51.45;;
72686;Laerm;61365;52.162;4.500;2023-04-25T09:29:34;46.86;38.90;52.19;;
72686;Laerm;61365;52.162;4.500;2023-04-25T09:32:21;46.94;38.30;51.58;;
72686;Laerm;61365;52.162;4.500;2023-04-25T09:34:55;46.94;39.05;51.62;;
72686;Laerm;61365;52.162;4.500;2023-04-25T09:37:29;47.15;39.59;51.47;;
72686;Laerm;61365;52.162;4.500;2023-04-25T09:39:58;47.08;38.27;52.64;;
72686;Laerm;61365;52.162;4.500;2023-04-25T09:42:26;47.11;39.22;52.79;;
72686;Laerm;61365;52.162;4.500;2023-04-25T09:44:54;47.00;38.12;53.46;;
72686;Laerm;61365;52.162;4.500;2023-04-25T09:47:22;47.22;39.18;52.22;;
72686;Laerm;61365;52.162;4.500;2023-04-25T09:49:50;47.22;40.05;52.90;;
72686;Laerm;61365;52.162;4.500;2023-04-25T09:52:19;47.19;39.54;52.30;;
72686;Laerm;61365;52.162;4.500;2023-04-25T09:54:45;47.25;39.31;52.08;;
72686;Laerm;61365;52.162;4.500;2023-04-25T09:59:50;47.48;39.21;51.48;;
72686;Laerm;61365;52.162;4.500;2023-04-25T10:02:21;47.34;40.03;51.91;;
72686;Laerm;61365;52.162;4.500;2023-04-25T10:04:50;47.29;40.36;52.39;;
72686;Laerm;61365;52.162;4.500;2023-04-25T10:07:19;47.15;39.60;52.75;;
72686;Laerm;61365;52.162;4.500;2023-04-25T10:09:54;47.40;40.57;51.64;;
72686;Laerm;61365;52.162;4.500;2023-04-25T10:12:22;47.37;39.67;52.43;;
72686;Laerm;61365;52.162;4.500;2023-04-25T10:14:49;47.34;39.30;52.31;;
72686;Laerm;61365;52.162;4.500;2023-04-25T10:17:15;47.60;40.31;51.72;;
72686;Laerm;61365;52.162;4.500;2023-04-25T10:19:42;47.53;39.78;51.60;;
72686;Laerm;61365;52.162;4.500;2023-04-25T10:22:13;47.51;40.38;53.85;;
72686;Laerm;61365;52.162;4.500;2023-04-25T10:24:40;47.58;40.12;51.64;;
72686;Laerm;61365;52.162;4.500;2023-04-25T10:27:07;47.52;40.66;55.31;;
72686;Laerm;61365;52.162;4.500;2023-04-25T10:29:35;47.49;40.22;51.38;;
72686;Laerm;61365;52.162;4.500;2023-04-25T10:32:02;47.57;39.92;52.54;;
72686;Laerm;61365;52.162;4.500;2023-04-25T10:34:48;47.67;40.65;51.92;;
72686;Laerm;61365;52.162;4.500;2023-04-25T10:37:15;47.72;40.67;52.92;;
72686;Laerm;61365;52.162;4.500;2023-04-25T10:39:41;47.65;39.77;52.33;;
72686;Laerm;61365;52.162;4.500;2023-04-25T10:42:08;47.62;40.70;51.80;;
72686;Laerm;61365;52.162;4.500;2023-04-25T10:44:34;47.85;38.60;51.70;;
72686;Laerm;61365;52.162;4.500;2023-04-25T10:47:02;47.83;40.50;51.76;;
72686;Laerm;61365;52.162;4.500;2023-04-25T10:49:41;47.76;40.30;52.07;;
72686;Laerm;61365;52.162;4.500;2023-04-25T10:52:19;48.02;40.24;52.17;;
72686;Laerm;61365;52.162;4.500;2023-04-25T10:54:57;47.96;41.19;56.46;;
72686;Laerm;61365;52.162;4.500;2023-04-25T11:02:31;47.80;40.08;51.91;;
72686;Laerm;61365;52.162;4.500;2023-04-25T11:04:59;47.75;39.77;53.01;;
72686;Laerm;61365;52.162;4.500;2023-04-25T11:07:38;47.79;39.04;52.40;;
72686;Laerm;61365;52.162;4.500;2023-04-25T11:10:05;47.70;40.11;51.79;;
72686;Laerm;61365;52.162;4.500;2023-04-25T11:12:32;47.75;40.18;52.21;;
72686;Laerm;61365;52.162;4.500;2023-04-25T11:15:02;47.86;40.72;52.84;;
72686;Laerm;61365;52.162;4.500;2023-04-25T11:17:29;47.76;40.06;55.78;;
72686;Laerm;61365;52.162;4.500;2023-04-25T11:19:55;47.85;40.22;53.67;;
72686;Laerm;61365;52.162;4.500;2023-04-25T11:22:23;48.10;40.69;52.43;;
72686;Laerm;61365;52.162;4.500;2023-04-25T11:24:49;48.10;40.50;52.85;;
72686;Laerm;61365;52.162;4.500;2023-04-25T11:27:16;48.11;40.96;55.88;;
72686;Laerm;61365;52.162;4.500;2023-04-25T11:29:42;47.91;40.38;52.19;;
72686;Laerm;61365;52.162;4.500;2023-04-25T11:32:08;47.80;40.27;52.49;;
72686;Laerm;61365;52.162;4.500;2023-04-25T11:34:34;47.95;37.77;52.21;;
72686;Laerm;61365;52.162;4.500;2023-04-25T11:37:02;47.82;39.85;52.88;;
72686;Laerm;61365;52.162;4.500;2023-04-25T11:39:28;47.81;40.33;51.89;;
72686;Laerm;61365;52.162;4.500;2023-04-25T11:41:55;47.94;41.10;52.14;;
72686;Laerm;61365;52.162;4.500;2023-04-25T11:44:21;48.18;41.11;52.35;;
72686;Laerm;61365;52.162;4.500;2023-04-25T11:46:47;47.97;39.72;52.26;;
72686;Laerm;61365;52.162;4.500;2023-04-25T11:49:15;47.96;40.79;51.82;;
72686;Laerm;61365;52.162;4.500;2023-04-25T11:51:42;48.04;40.63;55.67;;
72686;Laerm;61365;52.162;4.500;2023-04-25T11:54:09;48.00;40.37;53.57;;
72686;Laerm;61365;52.162;4.500;2023-04-25T11:56:36;48.10;41.01;55.10;;
72686;Laerm;61365;52.162;4.500;2023-04-25T11:59:04;48.14;40.15;52.46;;
72686;Laerm;61365;52.162;4.500;2023-04-25T12:01:35;48.00;41.17;52.22;;
72686;Laerm;61365;52.162;4.500;2023-04-25T12:04:13;47.96;40.39;56.35;;
72686;Laerm;61365;52.162;4.500;2023-04-25T12:06:40;47.93;39.74;53.30;;
72686;Laerm;61365;52.162;4.500;2023-04-25T12:09:09;47.93;40.89;52.21;;
72686;Laerm;61365;52.162;4.500;2023-04-25T12:11:43;48.04;39.50;52.15;;
72686;Laerm;61365;52.162;4.500;2023-04-25T12:14:10;47.91;40.23;51.97;;
72686;Laerm;61365;52.162;4.500;2023-04-25T12:16:44;47.68;40.79;52.92;;
72686;Laerm;61365;52.162;4.500;2023-04-25T12:19:14;47.63;39.56;52.84;;
72686;Laerm;61365;52.162;4.500;2023-04-25T12:21:41;47.74;39.80;52.42;;
72686;Laerm;61365;52.162;4.500;2023-04-25T12:24:10;47.79;39.84;53.06;;
72686;Laerm;61365;52.162;4.500;2023-04-25T12:26:51;47.81;38.55;53.15;;
72686;Laerm;61365;52.162;4.500;2023-04-25T12:29:23;47.68;39.55;52.08;;
72686;Laerm;61365;52.162;4.500;2023-04-25T12:31:50;47.80;40.23;61.58;;
72686;Laerm;61365;52.162;4.500;2023-04-25T12:34:20;47.78;39.37;52.65;;
72686;Laerm;61365;52.162;4.500;2023-04-25T12:36:47;47.88;40.00;59.91;;
72686;Laerm;61365;52.162;4.500;2023-04-25T12:39:20;47.87;40.57;53.45;;
72686;Laerm;61365;52.162;4.500;2023-04-25T12:41:50;47.95;40.42;51.93;;
72686;Laerm;61365;52.162;4.500;2023-04-25T12:44:18;47.79;40.52;52.14;;
72686;Laerm;61365;52.162;4.500;2023-04-25T12:46:44;47.87;39.68;52.50;;
72686;Laerm;61365;52.162;4.500;2023-04-25T12:49:10;47.86;39.56;52.20;;
72686;Laerm;61365;52.162;4.500;2023-04-25T12:51:37;47.98;40.81;52.15;;
72686;Laerm;61365;52.162;4.500;2023-04-25T12:54:05;47.89;40.74;52.38;;
72686;Laerm;61365;52.162;4.500;2023-04-25T12:56:35;47.80;40.45;51.46;;
72686;Laerm;61365;52.162;4.500;2023-04-25T12:59:02;47.73;40.17;51.84;;
72686;Laerm;61365;52.162;4.500;2023-04-25T13:01:29;47.78;40.39;52.44;;
72686;Laerm;61365;52.162;4.500;2023-04-25T13:03:55;47.84;40.11;53.45;;
72686;Laerm;61365;52.162;4.500;2023-04-25T13:06:22;47.92;40.76;51.97;;
72686;Laerm;61365;52.162;4.500;2023-04-25T13:08:48;47.86;40.67;52.07;;
72686;Laerm;61365;52.162;4.500;2023-04-25T13:11:14;47.85;40.66;55.21;;
72686;Laerm;61365;52.162;4.500;2023-04-25T13:13:41;47.90;40.11;52.62;;
72686;Laerm;61365;52.162;4.500;2023-04-25T13:16:07;47.80;40.96;64.62;;
72686;Laerm;61365;52.162;4.500;2023-04-25T13:18:35;47.72;39.44;52.57;;
72686;Laerm;61365;52.162;4.500;2023-04-25T13:21:01;47.39;39.83;52.38;;
72686;Laerm;61365;52.162;4.500;2023-04-25T13:23:28;46.65;40.01;52.95;;
72686;Laerm;61365;52.162;4.500;2023-04-25T13:25:55;46.53;40.19;50.85;;
72686;Laerm;61365;52.162;4.500;2023-04-25T13:28:27;46.66;40.39;52.15;;
72686;Laerm;61365;52.162;4.500;2023-04-25T13:30:53;46.61;39.53;52.71;;
72686;Laerm;61365;52.162;4.500;2023-04-25T13:33:20;46.75;40.97;51.77;;
72686;Laerm;61365;52.162;4.500;2023-04-25T13:35:48;47.82;40.28;52.02;;
72686;Laerm;61365;52.162;4.500;2023-04-25T13:38:21;47.91;40.18;56.20;;
72686;Laerm;61365;52.162;4.500;2023-04-25T13:40:49;47.97;40.74;52.55;;
72686;Laerm;61365;52.162;4.500;2023-04-25T13:43:15;47.83;40.14;51.94;;
72686;Laerm;61365;52.162;4.500;2023-04-25T13:45:42;47.83;40.61;52.10;;
72686;Laerm;61365;52.162;4.500;2023-04-25T13:48:08;47.98;40.81;52.25;;
72686;Laerm;61365;52.162;4.500;2023-04-25T13:50:34;48.08;40.23;53.20;;